createdAt,value
2022-11-01T00:00:37.459Z,100585.91
2022-11-01T00:03:09.919Z,100589.94
2022-11-01T00:05:42.455Z,100583.53
2022-11-01T00:08:14.978Z,100588.34
2022-11-01T00:10:47.531Z,100585.69
2022-11-01T00:13:20.119Z,100582.38
2022-11-01T00:15:52.691Z,100580.03
2022-11-01T00:18:25.844Z,100577.69
2022-11-01T00:20:58.433Z,100581.75
2022-11-01T00:23:30.959Z,100575.44
2022-11-01T00:26:05.305Z,100575.59
2022-11-01T00:28:37.914Z,100570.50
2022-11-01T00:31:12.810Z,100573.66
2022-11-01T00:33:45.815Z,100572.50
2022-11-01T00:36:18.424Z,100567.13
2022-11-01T00:38:52.364Z,100561.47
2022-11-01T00:41:25.953Z,100563.84
2022-11-01T00:43:58.876Z,100570.44
2022-11-01T00:46:32.982Z,100580.84
2022-11-01T00:49:05.486Z,100563.91
2022-11-01T00:51:38.062Z,100570.94
2022-11-01T00:54:10.557Z,100560.16
2022-11-01T00:56:43.021Z,100563.69
2022-11-01T00:59:15.719Z,100554.72
2022-11-01T01:01:48.348Z,100550.06
2022-11-01T01:04:20.905Z,100557.38
2022-11-01T01:06:53.447Z,100548.56
2022-11-01T01:09:25.988Z,100551.00
2022-11-01T01:11:59.194Z,100552.59
2022-11-01T01:14:32.612Z,100541.91
2022-11-01T01:17:05.367Z,100538.91
2022-11-01T01:19:37.838Z,100538.69
2022-11-01T01:22:10.482Z,100542.47
2022-11-01T01:24:45.677Z,100546.16
2022-11-01T01:27:18.386Z,100559.38
2022-11-01T01:29:51.711Z,100550.31
2022-11-01T01:32:24.628Z,100552.47
2022-11-01T01:34:57.172Z,100559.84
2022-11-01T01:37:29.750Z,100559.91
2022-11-01T01:40:02.462Z,100556.13
2022-11-01T01:42:39.254Z,100553.41
2022-11-01T01:45:28.737Z,100543.88
2022-11-01T01:48:22.447Z,100551.97
2022-11-01T01:51:04.437Z,100538.63
2022-11-01T01:53:47.388Z,100526.66
2022-11-01T01:56:24.955Z,100541.66
2022-11-01T01:59:09.323Z,100530.81
2022-11-01T02:01:42.008Z,100532.63
2022-11-01T02:04:44.499Z,100531.28
2022-11-01T02:07:16.995Z,100533.03
2022-11-01T02:09:50.590Z,100540.41
2022-11-01T02:12:30.205Z,100544.25
2022-11-01T02:15:13.490Z,100550.63
2022-11-01T02:18:18.673Z,100544.16
2022-11-01T02:21:30.235Z,100542.59
2022-11-01T02:24:32.050Z,100546.00
2022-11-01T02:27:13.677Z,100537.66
2022-11-01T02:30:18.557Z,100534.03
2022-11-01T02:33:37.507Z,100556.63
2022-11-01T02:36:29.511Z,100545.59
2022-11-01T02:39:19.871Z,100544.81
2022-11-01T02:42:07.272Z,100550.94
2022-11-01T02:44:49.089Z,100549.69
2022-11-01T02:47:25.049Z,100565.50
2022-11-01T02:50:06.203Z,100560.69
2022-11-01T02:52:41.408Z,100565.97
2022-11-01T02:55:31.321Z,100562.50
2022-11-01T02:58:25.294Z,100562.88
2022-11-01T03:00:58.091Z,100566.44
2022-11-01T03:03:35.695Z,100571.38
2022-11-01T03:06:40.701Z,100579.72
2022-11-01T03:09:14.937Z,100589.69
2022-11-01T03:15:20.957Z,100595.53
2022-11-01T03:18:04.522Z,100598.84
2022-11-01T03:21:15.648Z,100606.03
2022-11-01T03:24:07.447Z,100616.81
2022-11-01T03:26:43.652Z,100621.97
2022-11-01T03:29:21.287Z,100619.66
2022-11-01T03:31:55.856Z,100616.28
2022-11-01T03:34:31.509Z,100631.22
2022-11-01T03:37:11.239Z,100639.13
2022-11-01T03:39:50.889Z,100649.13
2022-11-01T03:42:24.912Z,100644.50
2022-11-01T03:45:06.405Z,100652.09
2022-11-01T03:47:39.112Z,100649.78
2022-11-01T03:50:27.044Z,100662.06
2022-11-01T03:53:00.339Z,100666.59
2022-11-01T03:55:32.928Z,100675.69
2022-11-01T03:58:05.731Z,100677.97
2022-11-01T04:00:42.640Z,100678.13
2022-11-01T04:03:15.325Z,100688.09
2022-11-01T04:05:47.802Z,100697.50
2022-11-01T04:08:20.304Z,100699.25
2022-11-01T04:10:52.897Z,100712.72
2022-11-01T04:13:25.668Z,100717.03
2022-11-01T04:16:16.926Z,100729.13
2022-11-01T04:19:08.331Z,100732.53
2022-11-01T04:21:41.412Z,100731.84
2022-11-01T04:24:20.877Z,100737.91
2022-11-01T04:26:53.629Z,100752.78
2022-11-01T04:29:26.904Z,100754.06
2022-11-01T04:31:59.552Z,100763.47
2022-11-01T04:34:44.055Z,100768.69
2022-11-01T04:37:16.604Z,100771.28
2022-11-01T04:39:49.154Z,100789.91
2022-11-01T04:42:21.599Z,100788.66
2022-11-01T04:44:54.087Z,100787.06
2022-11-01T04:47:26.817Z,100790.38
2022-11-01T04:49:59.365Z,100799.53
2022-11-01T04:52:31.978Z,100814.59
2022-11-01T04:55:04.875Z,100822.19
2022-11-01T04:57:42.099Z,100832.72
2022-11-01T05:00:15.139Z,100842.50
2022-11-01T05:02:47.700Z,100842.72
2022-11-01T05:05:20.343Z,100851.19
2022-11-01T05:08:12.512Z,100856.38
2022-11-01T05:10:45.284Z,100864.28
2022-11-01T05:13:17.759Z,100859.19
2022-11-01T05:16:06.529Z,100861.09
2022-11-01T05:18:43.692Z,100873.06
2022-11-01T05:21:17.980Z,100878.47
2022-11-01T05:23:50.514Z,100878.41
2022-11-01T05:26:23.024Z,100884.06
2022-11-01T05:28:55.855Z,100879.56
2022-11-01T05:31:28.424Z,100880.00
2022-11-01T05:34:00.957Z,100879.72
2022-11-01T05:36:33.509Z,100875.69
2022-11-01T05:39:06.010Z,100884.22
2022-11-01T05:41:40.403Z,100883.47
2022-11-01T05:44:12.932Z,100899.97
2022-11-01T05:46:45.560Z,100901.03
2022-11-01T05:49:18.172Z,100899.34
2022-11-01T05:51:50.952Z,100917.88
2022-11-01T05:54:23.693Z,100909.25
2022-11-01T05:56:56.167Z,100913.50
2022-11-01T05:59:28.680Z,100906.66
2022-11-01T06:02:01.477Z,100916.50
2022-11-01T06:04:34.168Z,100923.53
2022-11-01T06:07:06.788Z,100912.72
2022-11-01T06:09:39.350Z,100927.97
2022-11-01T06:12:11.916Z,100929.81
2022-11-01T06:14:44.493Z,100934.41
2022-11-01T06:17:17.032Z,100953.66
2022-11-01T06:19:49.569Z,100951.38
2022-11-01T06:22:22.125Z,100955.06
2022-11-01T06:24:54.641Z,100963.34
2022-11-01T06:27:29.009Z,100956.28
2022-11-01T06:30:01.608Z,100957.97
2022-11-01T06:32:34.158Z,100962.75
2022-11-01T06:35:07.451Z,100971.22
2022-11-01T06:37:40.206Z,100973.50
2022-11-01T06:40:13.015Z,100989.53
2022-11-01T06:42:47.003Z,100970.97
2022-11-01T06:45:19.661Z,100993.09
2022-11-01T06:47:52.202Z,100989.38
2022-11-01T06:50:25.160Z,100991.03
2022-11-01T06:52:59.621Z,100999.31
2022-11-01T06:55:32.314Z,101007.75
2022-11-01T06:58:05.210Z,101007.34
2022-11-01T07:00:37.941Z,101017.38
2022-11-01T07:03:14.218Z,101010.16
2022-11-01T07:05:49.365Z,101013.97
2022-11-01T07:08:22.014Z,101017.59
2022-11-01T07:10:54.779Z,101026.63
2022-11-01T07:13:28.977Z,101037.25
2022-11-01T07:16:01.654Z,101040.81
2022-11-01T07:18:34.546Z,101045.25
2022-11-01T07:21:07.109Z,101043.50
2022-11-01T07:23:39.577Z,101047.81
2022-11-01T07:26:12.240Z,101064.75
2022-11-01T07:28:44.801Z,101065.56
2022-11-01T07:31:17.318Z,101075.22
2022-11-01T07:33:49.833Z,101074.53
2022-11-01T07:36:22.580Z,101081.47
2022-11-01T07:38:55.074Z,101086.75
2022-11-01T07:41:27.751Z,101078.78
2022-11-01T07:44:00.358Z,101081.44
2022-11-01T07:46:32.931Z,101086.69
2022-11-01T07:49:05.472Z,101078.09
2022-11-01T07:51:38.067Z,101091.09
2022-11-01T07:54:11.464Z,101103.47
2022-11-01T07:56:43.972Z,101097.41
2022-11-01T07:59:16.752Z,101102.16
2022-11-01T08:01:49.286Z,101109.50
2022-11-01T08:04:21.928Z,101113.03
2022-11-01T08:06:54.435Z,101113.91
2022-11-01T08:09:26.940Z,101119.34
2022-11-01T08:11:59.681Z,101117.59
2022-11-01T08:14:32.192Z,101124.50
2022-11-01T08:17:04.900Z,101118.34
2022-11-01T08:19:37.446Z,101124.72
2022-11-01T08:22:09.921Z,101128.78
2022-11-01T08:24:42.446Z,101134.88
2022-11-01T08:27:14.945Z,101134.09
2022-11-01T08:29:47.465Z,101155.56
2022-11-01T08:32:21.581Z,101141.00
2022-11-01T08:34:54.105Z,101155.38
2022-11-01T08:37:26.677Z,101141.03
2022-11-01T08:39:59.232Z,101150.56
2022-11-01T08:42:31.726Z,101136.19
2022-11-01T08:45:06.152Z,101147.72
2022-11-01T08:47:40.598Z,101149.31
2022-11-01T08:50:16.812Z,101145.69
2022-11-01T08:52:49.331Z,101135.97
2022-11-01T08:55:22.887Z,101159.88
2022-11-01T08:57:59.722Z,101159.00
2022-11-01T09:00:32.690Z,101165.22
2022-11-01T09:03:05.219Z,101172.88
2022-11-01T09:05:37.790Z,101177.34
2022-11-01T09:08:10.376Z,101181.03
2022-11-01T09:10:42.880Z,101166.41
2022-11-01T09:13:15.322Z,101174.09
2022-11-01T09:15:47.805Z,101178.75
2022-11-01T09:18:20.451Z,101171.66
2022-11-01T09:20:55.126Z,101175.84
2022-11-01T09:23:27.631Z,101183.69
2022-11-01T09:26:09.119Z,101192.97
2022-11-01T09:28:41.644Z,101190.38
2022-11-01T09:31:20.996Z,101186.88
2022-11-01T09:33:57.153Z,101191.78
2022-11-01T09:36:30.638Z,101189.13
2022-11-01T09:39:03.174Z,101198.19
2022-11-01T09:41:45.317Z,101218.38
2022-11-01T09:44:23.547Z,101218.28
2022-11-01T09:47:03.148Z,101224.06
2022-11-01T09:49:43.905Z,101227.03
2022-11-01T09:52:22.465Z,101228.53
2022-11-01T09:54:54.999Z,101232.53
2022-11-01T09:57:36.839Z,101230.09
2022-11-01T10:00:20.251Z,101236.44
2022-11-01T10:03:21.576Z,101247.09
2022-11-01T10:06:09.997Z,101243.94
2022-11-01T10:08:59.008Z,101240.19
2022-11-01T10:11:50.950Z,101254.53
2022-11-01T10:14:54.625Z,101255.91
2022-11-01T10:17:52.097Z,101275.78
2022-11-01T10:20:33.596Z,101270.56
2022-11-01T10:23:06.572Z,101264.81
2022-11-01T10:25:48.846Z,101265.44
2022-11-01T10:29:01.817Z,101267.94
2022-11-01T10:31:44.998Z,101264.34
2022-11-01T10:34:36.447Z,101272.66
2022-11-01T10:37:35.109Z,101269.84
2022-11-01T10:40:24.181Z,101278.50
2022-11-01T10:42:56.712Z,101275.59
2022-11-01T10:45:30.871Z,101279.88
2022-11-01T10:48:04.336Z,101263.75
2022-11-01T10:50:38.697Z,101270.91
2022-11-01T10:53:13.269Z,101276.81
2022-11-01T10:55:56.828Z,101260.81
2022-11-01T10:58:53.539Z,101270.72
2022-11-01T11:01:32.315Z,101281.88
2022-11-01T11:04:11.401Z,101272.03
2022-11-01T11:06:44.493Z,101273.66
2022-11-01T11:09:28.852Z,101271.69
2022-11-01T11:12:13.606Z,101257.97
2022-11-01T11:15:04.708Z,101265.31
2022-11-01T11:17:44.958Z,101259.06
2022-11-01T11:20:25.591Z,101270.38
2022-11-01T11:23:02.932Z,101257.25
2022-11-01T11:25:43.151Z,101255.97
2022-11-01T11:28:26.650Z,101252.84
2022-11-01T11:31:21.357Z,101256.97
2022-11-01T11:34:20.339Z,101256.75
2022-11-01T11:36:55.254Z,101263.84
2022-11-01T11:39:37.380Z,101259.53
2022-11-01T11:42:15.579Z,101248.06
2022-11-01T11:44:55.413Z,101253.00
2022-11-01T11:47:38.143Z,101263.38
2022-11-01T11:50:19.357Z,101262.06
2022-11-01T11:53:00.496Z,101259.97
2022-11-01T11:55:54.522Z,101258.88
2022-11-01T11:58:53.409Z,101260.28
2022-11-01T12:01:26.534Z,101264.22
2022-11-01T12:04:16.069Z,101262.03
2022-11-01T12:06:48.602Z,101257.66
2022-11-01T12:09:46.530Z,101271.94
2022-11-01T12:12:43.573Z,101263.50
2022-11-01T12:15:30.616Z,101261.47
2022-11-01T12:18:18.054Z,101266.66
2022-11-01T12:20:52.821Z,101255.47
2022-11-01T12:23:39.149Z,101253.56
2022-11-01T12:26:16.641Z,101256.00
2022-11-01T12:29:17.918Z,101251.53
2022-11-01T12:31:55.414Z,101246.63
2022-11-01T12:34:41.463Z,101245.94
2022-11-01T12:37:29.353Z,101237.28
2022-11-01T12:40:20.957Z,101235.13
2022-11-01T12:43:16.920Z,101238.03
2022-11-01T12:46:00.127Z,101229.22
2022-11-01T12:48:44.756Z,101234.13
2022-11-01T12:51:28.929Z,101229.41
2022-11-01T12:54:18.205Z,101226.91
2022-11-01T12:56:50.775Z,101229.16
2022-11-01T12:59:34.963Z,101227.53
2022-11-01T13:02:47.971Z,101238.25
2022-11-01T13:05:39.203Z,101227.44
2022-11-01T13:08:37.271Z,101241.00
2022-11-01T13:11:27.069Z,101216.88
2022-11-01T13:14:33.205Z,101224.84
2022-11-01T13:17:43.148Z,101225.34
2022-11-01T13:20:44.223Z,101228.72
2022-11-01T13:23:36.927Z,101235.34
2022-11-01T13:26:49.875Z,101223.16
2022-11-01T13:29:38.219Z,101226.28
2022-11-01T13:32:40.911Z,101221.16
2022-11-01T13:35:47.936Z,101211.75
2022-11-01T13:39:00.565Z,101205.09
2022-11-01T13:41:43.472Z,101208.63
2022-11-01T13:44:23.207Z,101209.88
2022-11-01T13:47:34.813Z,101217.13
2022-11-01T13:50:35.258Z,101208.44
2022-11-01T13:53:36.124Z,101211.06
2022-11-01T13:56:24.805Z,101210.59
2022-11-01T13:58:58.578Z,101211.28
2022-11-01T14:01:38.802Z,101218.13
2022-11-01T14:04:11.291Z,101213.84
2022-11-01T14:07:05.219Z,101211.53
2022-11-01T14:09:52.346Z,101216.19
2022-11-01T14:12:46.610Z,101222.88
2022-11-01T14:15:28.237Z,101225.00
2022-11-01T14:18:10.607Z,101219.75
2022-11-01T14:20:51.063Z,101227.09
2022-11-01T14:23:29.795Z,101233.03
2022-11-01T14:26:21.067Z,101233.09
2022-11-01T14:29:00.351Z,101229.50
2022-11-01T14:31:34.305Z,101226.69
2022-11-01T14:34:22.941Z,101225.81
2022-11-01T14:37:03.276Z,101230.56
2022-11-01T14:39:51.290Z,101225.59
2022-11-01T14:42:35.088Z,101243.78
2022-11-01T14:45:25.507Z,101244.41
2022-11-01T14:48:26.422Z,101225.41
2022-11-01T14:51:09.652Z,101222.91
2022-11-01T14:53:46.407Z,101239.94
2022-11-01T14:56:22.534Z,101236.91
2022-11-01T14:59:21.874Z,101230.00
2022-11-01T15:02:02.660Z,101216.06
2022-11-01T15:04:47.995Z,101217.69
2022-11-01T15:07:31.583Z,101217.50
2022-11-01T15:10:10.971Z,101222.09
2022-11-01T15:12:50.127Z,101218.28
2022-11-01T15:15:31.267Z,101213.16
2022-11-01T15:18:28.586Z,101213.28
2022-11-01T15:21:01.949Z,101222.44
2022-11-01T15:23:38.285Z,101216.66
2022-11-01T15:26:13.021Z,101227.59
2022-11-01T15:28:57.996Z,101225.72
2022-11-01T15:31:32.349Z,101220.50
2022-11-01T15:34:21.674Z,101221.50
2022-11-01T15:36:55.145Z,101222.31
2022-11-01T15:39:29.338Z,101219.25
2022-11-01T15:42:18.740Z,101218.06
2022-11-01T15:44:51.204Z,101212.72
2022-11-01T15:47:28.638Z,101216.03
2022-11-01T15:50:06.404Z,101222.78
2022-11-01T15:52:39.577Z,101221.75
2022-11-01T15:55:30.014Z,101223.84
2022-11-01T15:58:21.835Z,101218.31
2022-11-01T16:01:02.908Z,101215.03
2022-11-01T16:04:08.356Z,101224.16
2022-11-01T16:06:51.039Z,101220.25
2022-11-01T16:09:40.187Z,101232.66
2022-11-01T16:12:45.412Z,101237.31
2022-11-01T16:15:24.565Z,101234.59
2022-11-01T16:18:00.242Z,101236.44
2022-11-01T16:20:43.339Z,101229.75
2022-11-01T16:23:32.202Z,101236.09
2022-11-01T16:26:08.946Z,101242.94
2022-11-01T16:28:46.300Z,101244.84
2022-11-01T16:31:26.377Z,101250.38
2022-11-01T16:33:59.139Z,101255.84
2022-11-01T16:36:31.496Z,101255.91
2022-11-01T16:39:29.852Z,101256.63
2022-11-01T16:42:02.503Z,101251.59
2022-11-01T16:44:35.028Z,101250.38
2022-11-01T16:47:11.040Z,101256.69
2022-11-01T16:49:53.265Z,101257.34
2022-11-01T16:52:25.647Z,101258.09
2022-11-01T16:57:31.247Z,101253.53
2022-11-01T17:00:04.872Z,101255.81
2022-11-01T17:02:39.784Z,101252.59
2022-11-01T17:05:20.776Z,101254.25
2022-11-01T17:07:53.243Z,101262.06
2022-11-01T17:10:29.985Z,101260.41
2022-11-01T17:13:04.060Z,101259.75
2022-11-01T17:15:51.910Z,101246.56
2022-11-01T17:18:36.533Z,101247.69
2022-11-01T17:21:11.564Z,101244.09
2022-11-01T17:23:44.173Z,101243.59
2022-11-01T17:26:19.189Z,101256.19
2022-11-01T17:28:52.506Z,101257.88
2022-11-01T17:31:25.270Z,101254.59
2022-11-01T17:33:57.812Z,101243.94
2022-11-01T17:36:30.726Z,101239.84
2022-11-01T17:39:04.432Z,101234.63
2022-11-01T17:41:37.460Z,101247.81
2022-11-01T17:44:12.078Z,101252.63
2022-11-01T17:46:44.704Z,101244.66
2022-11-01T17:49:21.370Z,101252.09
2022-11-01T17:51:55.458Z,101254.66
2022-11-01T17:54:28.017Z,101252.50
2022-11-01T17:57:00.514Z,101248.09
2022-11-01T17:59:32.981Z,101261.34
2022-11-01T18:02:10.141Z,101263.50
2022-11-01T18:04:42.764Z,101258.47
2022-11-01T18:07:15.263Z,101252.88
2022-11-01T18:09:47.755Z,101247.94
2022-11-01T18:12:39.362Z,101248.88
2022-11-01T18:15:29.899Z,101243.41
2022-11-01T18:18:52.388Z,101244.84
2022-11-01T18:21:45.059Z,101244.00
2022-11-01T18:24:32.553Z,101244.09
2022-11-01T18:27:11.466Z,101247.41
2022-11-01T18:29:49.983Z,101251.50
2022-11-01T18:32:57.892Z,101258.88
2022-11-01T18:35:39.003Z,101243.59
2022-11-01T18:38:26.261Z,101248.09
2022-11-01T18:41:01.925Z,101257.16
2022-11-01T18:43:40.144Z,101261.72
2022-11-01T18:46:27.185Z,101247.00
2022-11-01T18:49:12.807Z,101249.66
2022-11-01T18:51:46.479Z,101246.16
2022-11-01T18:54:33.017Z,101250.19
2022-11-01T18:57:18.846Z,101245.41
2022-11-01T18:59:53.407Z,101249.34
2022-11-01T19:02:28.209Z,101249.06
2022-11-01T19:05:17.918Z,101257.56
2022-11-01T19:08:21.143Z,101250.03
2022-11-01T19:10:53.710Z,101251.94
2022-11-01T19:13:34.646Z,101257.06
2022-11-01T19:16:12.074Z,101257.13
2022-11-01T19:18:46.937Z,101261.34
2022-11-01T19:21:22.454Z,101265.47
2022-11-01T19:23:56.203Z,101262.66
2022-11-01T19:26:42.334Z,101260.81
2022-11-01T19:29:25.978Z,101266.88
2022-11-01T19:32:03.739Z,101256.31
2022-11-01T19:34:41.006Z,101246.19
2022-11-01T19:37:33.046Z,101243.44
2022-11-01T19:40:30.922Z,101234.50
2022-11-01T19:43:15.626Z,101230.03
2022-11-01T19:46:00.196Z,101230.97
2022-11-01T19:48:38.158Z,101222.22
2022-11-01T19:51:19.340Z,101226.72
2022-11-01T19:53:53.688Z,101224.28
2022-11-01T19:56:42.173Z,101227.78
2022-11-01T19:59:17.310Z,101222.53
2022-11-01T20:01:50.013Z,101221.00
2022-11-01T20:04:31.319Z,101212.94
2022-11-01T20:07:16.659Z,101212.22
2022-11-01T20:09:49.250Z,101210.22
2022-11-01T20:12:22.305Z,101216.50
2022-11-01T20:14:54.889Z,101209.50
2022-11-01T20:17:32.179Z,101203.06
2022-11-01T20:20:05.996Z,101203.00
2022-11-01T20:22:39.422Z,101189.69
2022-11-01T20:25:11.947Z,101211.91
2022-11-01T20:27:44.454Z,101211.81
2022-11-01T20:30:17.341Z,101211.50
2022-11-01T20:32:49.855Z,101201.44
2022-11-01T20:35:22.868Z,101204.38
2022-11-01T20:37:55.827Z,101210.75
2022-11-01T20:40:28.523Z,101213.41
2022-11-01T20:43:01.320Z,101213.38
2022-11-01T20:45:34.983Z,101207.13
2022-11-01T20:48:07.807Z,101213.47
2022-11-01T20:50:40.369Z,101209.81
2022-11-01T20:53:14.706Z,101211.53
2022-11-01T20:55:47.484Z,101204.31
2022-11-01T20:58:19.982Z,101203.41
2022-11-01T21:00:52.717Z,101213.09
2022-11-01T21:03:27.401Z,101214.66
2022-11-01T21:05:59.934Z,101213.75
2022-11-01T21:08:34.256Z,101210.31
2022-11-01T21:11:16.549Z,101211.13
2022-11-01T21:13:51.657Z,101212.72
2022-11-01T21:16:31.227Z,101216.78
2022-11-01T21:19:04.984Z,101221.88
2022-11-01T21:21:45.281Z,101230.81
2022-11-01T21:24:36.293Z,101221.69
2022-11-01T21:27:11.746Z,101220.56
2022-11-01T21:29:48.562Z,101211.06
2022-11-01T21:32:42.495Z,101217.00
2022-11-01T21:35:20.624Z,101217.00
2022-11-01T21:37:54.924Z,101218.41
2022-11-01T21:40:29.461Z,101209.47
2022-11-01T21:43:03.988Z,101206.06
2022-11-01T21:45:36.865Z,101215.31
2022-11-01T21:48:28.724Z,101219.53
2022-11-01T21:51:01.263Z,101216.03
2022-11-01T21:53:34.113Z,101208.97
2022-11-01T21:56:07.129Z,101214.28
2022-11-01T21:58:39.962Z,101202.72
2022-11-01T22:01:13.860Z,101201.00
2022-11-01T22:03:46.398Z,101204.56
2022-11-01T22:06:18.912Z,101197.56
2022-11-01T22:08:51.805Z,101192.34
2022-11-01T22:11:26.915Z,101192.44
2022-11-01T22:14:01.914Z,101176.78
2022-11-01T22:16:34.798Z,101178.09
2022-11-01T22:19:07.458Z,101177.88
2022-11-01T22:21:40.183Z,101184.31
2022-11-01T22:24:12.804Z,101185.16
2022-11-01T22:26:45.276Z,101184.53
2022-11-01T22:29:17.787Z,101174.81
2022-11-01T22:31:50.431Z,101176.50
2022-11-01T22:34:22.976Z,101176.81
2022-11-01T22:36:56.602Z,101178.28
2022-11-01T22:39:30.013Z,101181.13
2022-11-01T22:42:02.507Z,101165.69
2022-11-01T22:44:37.885Z,101166.38
2022-11-01T22:47:27.228Z,101166.38
2022-11-01T22:50:03.021Z,101153.00
2022-11-01T22:52:41.162Z,101150.66
2022-11-01T22:55:21.856Z,101152.63
2022-11-01T22:58:23.507Z,101145.78
2022-11-01T23:00:59.342Z,101144.44
2022-11-01T23:03:38.276Z,101142.00
2022-11-01T23:06:34.274Z,101140.34
2022-11-01T23:09:16.417Z,101141.56
2022-11-01T23:12:18.504Z,101151.31
2022-11-01T23:14:51.099Z,101149.56
2022-11-01T23:17:35.332Z,101152.16
2022-11-01T23:20:09.887Z,101158.16
2022-11-01T23:22:42.481Z,101158.22
2022-11-01T23:25:15.059Z,101163.31
2022-11-01T23:27:49.850Z,101158.75
2022-11-01T23:30:22.450Z,101161.97
2022-11-01T23:32:56.542Z,101161.91
2022-11-01T23:35:30.207Z,101153.03
2022-11-01T23:38:15.227Z,101150.94
2022-11-01T23:40:50.364Z,101149.06
2022-11-01T23:43:40.974Z,101141.06
2022-11-01T23:46:14.144Z,101152.25
2022-11-01T23:48:47.251Z,101152.38
2022-11-01T23:51:21.446Z,101157.50
2022-11-01T23:53:55.989Z,101140.66
2022-11-01T23:56:28.845Z,101146.66
2022-11-01T23:59:04.413Z,101131.56
